Time;durP1;ratioP1;P1;durP2;ratioP2;P2;SDS_P1;SDS_P2;PMS_P1;PMS_P2;Temp;Humidity;BMP_temperature;BMP_pressure;BME280_temperature;BME280_humidity;BME280_pressure;Samples;Min_cycle;Max_cycle;Signal;HPM_P1;HPM_P2
2022/01/16 00:01:44;;;;;;;100.97;34.78;;;;;;;;;;4997873;28;92406;-72
2022/01/16 00:04:07;;;;;;;106.38;35.00;;;;;;;;;;5000796;28;92835;-71
2022/01/16 00:06:34;;;;;;;103.85;33.53;;;;;;;;;;4996539;28;94575;-71
2022/01/16 00:09:02;;;;;;;96.43;33.92;;;;;;;;;;4997102;28;95850;-71
2022/01/16 00:11:29;;;;;;;105.65;34.10;;;;;;;;;;4997861;28;93684;-72
2022/01/16 00:13:55;;;;;;;113.00;36.03;;;;;;;;;;4997799;28;92395;-71
2022/01/16 00:16:22;;;;;;;108.72;36.17;;;;;;;;;;4997752;28;93639;-71
2022/01/16 00:18:49;;;;;;;108.18;35.75;;;;;;;;;;4997220;28;93686;-72
2022/01/16 00:21:16;;;;;;;144.75;35.80;;;;;;;;;;4997787;28;92325;-72
2022/01/16 00:23:43;;;;;;;156.43;36.75;;;;;;;;;;4997594;28;93682;-72
2022/01/16 00:26:09;;;;;;;160.13;35.55;;;;;;;;;;4999789;28;93862;-71
2022/01/16 00:28:36;;;;;;;134.75;37.33;;;;;;;;;;4997361;28;93269;-71
2022/01/16 00:31:02;;;;;;;139.02;37.28;;;;;;;;;;4995545;28;96307;-71
2022/01/16 00:33:28;;;;;;;140.77;36.45;;;;;;;;;;4997355;28;92260;-71
2022/01/16 00:35:54;;;;;;;102.57;33.85;;;;;;;;;;4997632;28;93626;-71
2022/01/16 00:38:21;;;;;;;120.95;34.38;;;;;;;;;;4996667;28;93221;-72
2022/01/16 00:40:47;;;;;;;150.50;34.78;;;;;;;;;;4997275;28;92320;-72
2022/01/16 00:43:14;;;;;;;118.18;36.67;;;;;;;;;;4997534;28;92313;-71
2022/01/16 00:45:41;;;;;;;140.55;37.72;;;;;;;;;;4997161;28;93067;-72
2022/01/16 00:48:07;;;;;;;157.13;36.78;;;;;;;;;;4999855;28;91711;-72
2022/01/16 00:50:34;;;;;;;156.73;33.85;;;;;;;;;;4996843;28;93610;-71
2022/01/16 00:53:01;;;;;;;130.50;35.97;;;;;;;;;;4996784;28;92462;-72
2022/01/16 00:55:28;;;;;;;183.40;37.17;;;;;;;;;;4995590;28;94598;-72
2022/01/16 00:57:54;;;;;;;162.18;35.67;;;;;;;;;;4997112;28;93679;-71
2022/01/16 01:00:25;;;;;;;180.35;35.90;;;;;;;;;;4996934;28;92365;-72
2022/01/16 01:02:54;;;;;;;167.40;36.00;;;;;;;;;;4997092;28;93423;-71
2022/01/16 01:05:20;;;;;;;120.85;34.88;;;;;;;;;;4996647;28;93422;-71
2022/01/16 01:07:46;;;;;;;175.90;36.08;;;;;;;;;;4996981;28;92234;-72
2022/01/16 01:10:31;;;;;;;194.75;40.15;;;;;;;;;;4999448;28;93968;-72
2022/01/16 01:13:10;;;;;;;138.32;36.13;;;;;;;;;;4997264;28;91573;-72
2022/01/16 01:15:47;;;;;;;136.05;34.47;;;;;;;;;;4995735;28;92749;-71
2022/01/16 01:18:14;;;;;;;213.60;38.00;;;;;;;;;;4996755;28;93395;-71
2022/01/16 01:20:42;;;;;;;190.60;37.75;;;;;;;;;;4994930;28;94743;-72
2022/01/16 01:23:09;;;;;;;182.07;37.63;;;;;;;;;;4996529;28;95808;-71
2022/01/16 01:25:36;;;;;;;158.95;34.17;;;;;;;;;;4996581;28;93481;-71
2022/01/16 01:28:02;;;;;;;193.30;38.20;;;;;;;;;;4996516;28;92259;-72
2022/01/16 01:30:29;;;;;;;239.55;40.85;;;;;;;;;;4996259;28;94029;-71
2022/01/16 01:32:56;;;;;;;171.65;36.08;;;;;;;;;;4999324;28;93601;-72
2022/01/16 01:35:22;;;;;;;154.20;37.90;;;;;;;;;;4996416;28;92848;-72
2022/01/16 01:37:49;;;;;;;107.60;35.72;;;;;;;;;;4995702;28;92623;-71
2022/01/16 01:40:17;;;;;;;130.90;36.67;;;;;;;;;;4996375;28;92232;-71
2022/01/16 01:43:03;;;;;;;138.07;37.97;;;;;;;;;;4996363;28;93499;-72
2022/01/16 01:51:11;;;;;;;177.10;36.65;;;;;;;;;;4995724;28;93859;-71
2022/01/16 01:53:38;;;;;;;136.88;32.92;;;;;;;;;;4996045;28;92715;-71
2022/01/16 01:56:06;;;;;;;141.10;35.47;;;;;;;;;;4999323;28;92376;-72
2022/01/16 01:58:34;;;;;;;157.50;38.63;;;;;;;;;;4996159;28;94024;-71
2022/01/16 02:01:01;;;;;;;147.88;38.13;;;;;;;;;;4996093;28;92469;-71
2022/01/16 02:05:54;;;;;;;124.25;35.15;;;;;;;;;;5002159;28;93510;-72
2022/01/16 02:08:21;;;;;;;118.32;35.25;;;;;;;;;;5036312;28;92248;-71
2022/01/16 02:10:47;;;;;;;131.75;35.53;;;;;;;;;;5034474;28;94772;-71
2022/01/16 02:13:28;;;;;;;121.53;35.53;;;;;;;;;;5036130;28;93831;-72
2022/01/16 02:32:29;;;;;;;115.18;35.35;;;;;;;;;;5035842;28;92814;-71
2022/01/16 02:34:49;;;;;;;136.48;35.92;;;;;;;;;;5035522;28;92657;-71
2022/01/16 02:37:18;;;;;;;127.45;36.78;;;;;;;;;;5034007;27;94696;-71
2022/01/16 02:39:49;;;;;;;133.60;35.92;;;;;;;;;;5038585;28;95689;-71
2022/01/16 02:42:16;;;;;;;125.35;36.60;;;;;;;;;;5035741;28;92124;-71
2022/01/16 02:44:48;;;;;;;133.00;35.97;;;;;;;;;;5035737;28;93178;-71
2022/01/16 02:47:19;;;;;;;144.18;36.80;;;;;;;;;;5035689;27;94089;-71
2022/01/16 02:49:49;;;;;;;119.83;34.33;;;;;;;;;;5038596;28;92522;-71
2022/01/16 02:52:17;;;;;;;148.68;36.80;;;;;;;;;;5039229;28;92985;-70
2022/01/16 02:54:45;;;;;;;136.15;36.08;;;;;;;;;;5039318;28;92979;-70
2022/01/16 02:57:13;;;;;;;143.05;34.90;;;;;;;;;;5039260;28;92419;-72
2022/01/16 02:59:41;;;;;;;160.60;37.03;;;;;;;;;;5039081;28;93428;-71
2022/01/16 03:02:07;;;;;;;129.52;34.38;;;;;;;;;;5039928;28;95921;-71
2022/01/16 03:04:34;;;;;;;137.07;35.50;;;;;;;;;;5038877;28;95809;-71
2022/01/16 03:07:01;;;;;;;183.23;36.75;;;;;;;;;;5038746;28;92570;-71
2022/01/16 03:09:38;;;;;;;144.43;36.58;;;;;;;;;;5039087;28;92231;-70
2022/01/16 03:12:07;;;;;;;177.43;39.42;;;;;;;;;;5038969;28;93417;-71
2022/01/16 03:14:34;;;;;;;181.55;37.92;;;;;;;;;;5038407;28;94071;-71
2022/01/16 03:17:00;;;;;;;132.88;35.85;;;;;;;;;;5038665;28;92398;-71
2022/01/16 03:22:12;;;;;;;195.38;38.72;;;;;;;;;;5038423;28;93613;-71
2022/01/16 03:24:43;;;;;;;169.05;38.75;;;;;;;;;;5041914;28;92179;-71
2022/01/16 03:27:10;;;;;;;144.05;35.70;;;;;;;;;;5036465;27;95815;-72
2022/01/16 03:29:37;;;;;;;139.65;36.08;;;;;;;;;;5038221;28;92322;-71
2022/01/16 03:32:05;;;;;;;163.60;38.33;;;;;;;;;;5038436;28;93521;-72
2022/01/16 03:34:31;;;;;;;142.75;38.00;;;;;;;;;;5038427;28;93678;-71
2022/01/16 03:36:57;;;;;;;149.00;36.15;;;;;;;;;;5038563;28;92802;-71
2022/01/16 03:39:24;;;;;;;149.25;37.88;;;;;;;;;;5038554;28;93439;-71
2022/01/16 03:41:50;;;;;;;149.70;36.45;;;;;;;;;;5037621;28;93588;-71
2022/01/16 03:44:17;;;;;;;163.77;39.20;;;;;;;;;;5038834;28;91394;-71
2022/01/16 03:46:44;;;;;;;151.75;36.35;;;;;;;;;;5041407;28;92824;-70
2022/01/16 03:49:12;;;;;;;162.10;39.60;;;;;;;;;;5038478;27;92373;-71
2022/01/16 03:51:39;;;;;;;179.15;38.67;;;;;;;;;;5036431;28;94661;-71
2022/01/16 03:54:06;;;;;;;162.57;39.17;;;;;;;;;;5038165;28;92717;-70
2022/01/16 03:56:33;;;;;;;201.50;40.95;;;;;;;;;;5037576;28;92318;-71
2022/01/16 03:59:00;;;;;;;179.13;38.33;;;;;;;;;;5037682;28;93558;-71
2022/01/16 04:01:26;;;;;;;185.18;40.55;;;;;;;;;;5037463;28;93561;-70
2022/01/16 04:03:53;;;;;;;192.32;36.22;;;;;;;;;;5036762;28;92439;-71
2022/01/16 04:06:20;;;;;;;189.32;41.85;;;;;;;;;;5036697;28;94449;-71
2022/01/16 04:08:47;;;;;;;166.27;37.85;;;;;;;;;;5041482;28;93178;-72
2022/01/16 04:11:13;;;;;;;157.10;40.13;;;;;;;;;;5036371;28;95537;-71
2022/01/16 04:13:48;;;;;;;174.20;39.03;;;;;;;;;;5037827;28;93654;-70
2022/01/16 04:16:15;;;;;;;159.98;38.50;;;;;;;;;;5036239;28;94684;-72
2022/01/16 04:18:42;;;;;;;165.43;41.25;;;;;;;;;;5037725;27;95673;-70
2022/01/16 04:21:08;;;;;;;175.00;41.10;;;;;;;;;;5037316;28;93792;-71
2022/01/16 04:23:34;;;;;;;134.13;38.85;;;;;;;;;;5037274;28;92341;-70
2022/01/16 04:26:01;;;;;;;134.50;37.60;;;;;;;;;;5037606;28;93371;-71
2022/01/16 04:28:27;;;;;;;124.75;37.47;;;;;;;;;;5039545;28;94187;-71
2022/01/16 04:30:54;;;;;;;127.72;37.65;;;;;;;;;;5037389;28;93749;-70
2022/01/16 04:33:20;;;;;;;161.68;39.67;;;;;;;;;;5038028;27;92963;-71
2022/01/16 04:35:46;;;;;;;127.40;38.95;;;;;;;;;;5037747;28;93473;-71
2022/01/16 04:38:13;;;;;;;132.85;39.92;;;;;;;;;;5037135;28;93422;-71
2022/01/16 04:40:43;;;;;;;131.95;37.65;;;;;;;;;;5035741;28;96022;-70
2022/01/16 04:45:59;;;;;;;140.48;38.92;;;;;;;;;;5037706;28;93348;-70
2022/01/16 04:48:26;;;;;;;174.48;42.80;;;;;;;;;;5037144;28;93506;-70
2022/01/16 04:50:52;;;;;;;147.75;42.22;;;;;;;;;;5039357;28;92353;-71
2022/01/16 04:53:18;;;;;;;154.98;42.75;;;;;;;;;;5037193;28;93181;-71
2022/01/16 04:55:46;;;;;;;163.48;44.88;;;;;;;;;;5037400;28;92396;-70
2022/01/16 04:58:13;;;;;;;154.98;44.08;;;;;;;;;;5037377;28;93557;-71
2022/01/16 05:00:39;;;;;;;150.40;43.95;;;;;;;;;;5036797;28;93576;-71
2022/01/16 05:03:06;;;;;;;144.95;44.47;;;;;;;;;;5037211;28;92254;-71
2022/01/16 05:05:32;;;;;;;143.38;43.42;;;;;;;;;;5035471;27;94834;-71
2022/01/16 05:07:58;;;;;;;139.98;42.78;;;;;;;;;;5036803;28;93496;-71
2022/01/16 05:10:25;;;;;;;155.18;44.03;;;;;;;;;;5037064;27;92273;-70
2022/01/16 05:12:52;;;;;;;145.32;46.45;;;;;;;;;;5039832;28;93807;-70
2022/01/16 05:18:04;;;;;;;146.00;45.53;;;;;;;;;;5036892;27;92446;-71
2022/01/16 05:20:30;;;;;;;136.95;47.72;;;;;;;;;;5036497;28;93454;-70
2022/01/16 05:22:57;;;;;;;130.38;45.90;;;;;;;;;;5037376;28;91625;-71
2022/01/16 05:25:23;;;;;;;153.52;47.83;;;;;;;;;;5035455;28;93012;-72
2022/01/16 05:27:50;;;;;;;158.63;49.58;;;;;;;;;;5036759;28;93876;-71
2022/01/16 05:30:16;;;;;;;138.25;45.03;;;;;;;;;;5035357;28;94771;-71
2022/01/16 05:32:42;;;;;;;140.98;46.92;;;;;;;;;;5036448;28;95320;-72
2022/01/16 05:35:09;;;;;;;140.98;49.80;;;;;;;;;;5039559;28;93095;-70
2022/01/16 05:37:35;;;;;;;147.60;51.05;;;;;;;;;;5036446;28;93846;-70
2022/01/16 05:40:02;;;;;;;154.63;50.58;;;;;;;;;;5035165;28;93975;-71
2022/01/16 05:42:29;;;;;;;151.82;50.78;;;;;;;;;;5036764;27;92195;-71
2022/01/16 05:44:55;;;;;;;138.23;49.15;;;;;;;;;;5036453;28;92739;-71
2022/01/16 05:47:22;;;;;;;138.48;48.95;;;;;;;;;;5036947;28;92512;-71
2022/01/16 05:49:48;;;;;;;143.40;50.53;;;;;;;;;;5036542;28;92382;-71
2022/01/16 05:52:34;;;;;;;141.55;48.25;;;;;;;;;;5035817;28;93463;-71
2022/01/16 05:55:01;;;;;;;143.63;50.72;;;;;;;;;;5034499;28;95393;-70
2022/01/16 05:57:28;;;;;;;136.27;49.03;;;;;;;;;;5039528;28;92322;-70
2022/01/16 05:59:55;;;;;;;129.02;50.50;;;;;;;;;;5036270;28;93549;-71
2022/01/16 06:02:21;;;;;;;137.30;50.90;;;;;;;;;;5036209;28;92593;-71
2022/01/16 06:04:48;;;;;;;141.10;51.22;;;;;;;;;;5036174;28;92287;-71
2022/01/16 06:07:15;;;;;;;144.02;51.85;;;;;;;;;;5035636;28;94107;-70
2022/01/16 06:09:41;;;;;;;133.90;50.35;;;;;;;;;;5036262;28;92377;-70
2022/01/16 06:12:08;;;;;;;134.00;51.85;;;;;;;;;;5036625;28;93429;-70
2022/01/16 06:14:34;;;;;;;127.68;49.70;;;;;;;;;;5035996;28;94003;-70
2022/01/16 06:17:00;;;;;;;133.48;50.85;;;;;;;;;;5036154;28;92276;-70
2022/01/16 06:19:27;;;;;;;123.78;49.38;;;;;;;;;;5037157;28;94804;-71
2022/01/16 06:21:55;;;;;;;121.20;50.10;;;;;;;;;;5035585;27;92409;-70
2022/01/16 06:24:21;;;;;;;122.75;49.92;;;;;;;;;;5038901;28;92782;-70
2022/01/16 06:26:49;;;;;;;118.35;49.42;;;;;;;;;;5039479;28;93169;-71
2022/01/16 06:29:16;;;;;;;131.27;51.45;;;;;;;;;;5039487;28;92258;-71
2022/01/16 06:31:42;;;;;;;117.13;50.50;;;;;;;;;;5039559;28;93654;-70
2022/01/16 06:34:09;;;;;;;127.75;53.20;;;;;;;;;;5039338;28;93634;-71
2022/01/16 06:36:35;;;;;;;125.57;51.80;;;;;;;;;;5039702;28;91560;-71
2022/01/16 06:39:06;;;;;;;134.32;52.75;;;;;;;;;;5042447;28;92280;-71
2022/01/16 06:41:32;;;;;;;122.05;53.22;;;;;;;;;;5039685;28;92219;-71
2022/01/16 06:43:59;;;;;;;125.25;52.13;;;;;;;;;;5038437;28;94700;-71
2022/01/16 06:46:28;;;;;;;125.47;53.80;;;;;;;;;;5039719;28;93862;-71
2022/01/16 06:48:55;;;;;;;119.35;52.33;;;;;;;;;;5039439;28;92287;-70
2022/01/16 06:51:21;;;;;;;114.80;49.05;;;;;;;;;;5038967;28;93387;-71
2022/01/16 06:53:48;;;;;;;117.70;50.70;;;;;;;;;;5038793;28;93081;-70
2022/01/16 06:56:15;;;;;;;119.20;50.85;;;;;;;;;;5039110;28;92176;-70
2022/01/16 06:58:42;;;;;;;115.28;49.67;;;;;;;;;;5039039;28;93857;-71
2022/01/16 07:01:09;;;;;;;107.85;49.97;;;;;;;;;;5042609;28;93033;-71
2022/01/16 07:03:37;;;;;;;114.55;50.97;;;;;;;;;;5037931;28;92290;-71
2022/01/16 07:06:04;;;;;;;105.97;48.38;;;;;;;;;;5038847;28;94229;-73
2022/01/16 07:08:30;;;;;;;119.82;51.17;;;;;;;;;;5037379;28;94667;-70
2022/01/16 07:10:57;;;;;;;102.22;47.88;;;;;;;;;;5038940;28;95972;-71
2022/01/16 07:13:24;;;;;;;106.90;50.97;;;;;;;;;;5038403;28;93744;-70
2022/01/16 07:15:50;;;;;;;118.53;50.65;;;;;;;;;;5038264;28;92342;-71
2022/01/16 07:18:17;;;;;;;112.40;49.83;;;;;;;;;;5037253;28;94828;-71
2022/01/16 07:20:44;;;;;;;119.68;50.92;;;;;;;;;;5038397;28;96666;-71
2022/01/16 07:23:11;;;;;;;112.60;49.42;;;;;;;;;;5041951;28;92355;-70
2022/01/16 07:25:37;;;;;;;109.82;48.42;;;;;;;;;;5038065;28;94344;-71
2022/01/16 07:28:04;;;;;;;118.50;51.55;;;;;;;;;;5038529;28;92511;-71
2022/01/16 07:30:31;;;;;;;105.20;48.42;;;;;;;;;;5038183;28;93577;-72
2022/01/16 07:32:57;;;;;;;106.75;48.45;;;;;;;;;;5036782;28;95588;-71
2022/01/16 07:35:23;;;;;;;107.13;48.85;;;;;;;;;;5036192;28;92206;-72
2022/01/16 07:38:05;;;;;;;91.95;47.13;;;;;;;;;;5038616;28;93656;-71
2022/01/16 07:40:31;;;;;;;101.68;47.45;;;;;;;;;;5038246;28;93962;-71
2022/01/16 07:42:59;;;;;;;101.82;46.20;;;;;;;;;;5038466;28;92369;-71
2022/01/16 07:45:25;;;;;;;95.10;45.85;;;;;;;;;;5041130;28;93944;-71
2022/01/16 07:47:52;;;;;;;94.85;45.75;;;;;;;;;;5038252;28;92493;-71
2022/01/16 07:50:18;;;;;;;99.60;46.40;;;;;;;;;;5038818;27;93324;-72
2022/01/16 07:52:47;;;;;;;94.03;45.55;;;;;;;;;;5038036;28;93395;-71
2022/01/16 07:55:14;;;;;;;85.45;42.85;;;;;;;;;;5038053;27;92336;-71
2022/01/16 07:57:42;;;;;;;87.95;45.17;;;;;;;;;;5036036;28;94717;-71
2022/01/16 08:00:28;;;;;;;82.60;41.97;;;;;;;;;;5037469;28;93504;-71
2022/01/16 08:02:57;;;;;;;84.10;42.22;;;;;;;;;;5038099;28;92329;-70
2022/01/16 08:05:23;;;;;;;81.28;40.17;;;;;;;;;;5038095;27;93466;-70
2022/01/16 08:07:50;;;;;;;74.88;40.00;;;;;;;;;;5041067;28;93668;-73
2022/01/16 08:10:16;;;;;;;81.05;40.40;;;;;;;;;;5037462;28;93854;-70
2022/01/16 08:12:43;;;;;;;78.38;40.20;;;;;;;;;;5037701;28;93646;-70
2022/01/16 08:15:09;;;;;;;76.68;39.50;;;;;;;;;;5038474;28;91575;-71
2022/01/16 08:17:36;;;;;;;68.97;37.65;;;;;;;;;;5037709;28;93204;-71
2022/01/16 08:20:06;;;;;;;63.63;37.85;;;;;;;;;;5037508;28;93893;-70
2022/01/16 08:22:32;;;;;;;75.55;38.97;;;;;;;;;;5036185;28;95406;-70
2022/01/16 08:24:58;;;;;;;69.57;39.85;;;;;;;;;;5035643;28;97578;-72
2022/01/16 08:27:25;;;;;;;71.65;37.88;;;;;;;;;;5037509;28;93523;-70
2022/01/16 08:29:51;;;;;;;73.00;37.78;;;;;;;;;;5040280;28;92113;-70
2022/01/16 08:32:18;;;;;;;64.18;36.65;;;;;;;;;;5037673;28;93702;-72
2022/01/16 08:34:44;;;;;;;67.13;34.83;;;;;;;;;;5037713;28;92584;-71
2022/01/16 08:37:11;;;;;;;67.03;36.92;;;;;;;;;;5037034;28;94058;-71
2022/01/16 08:39:37;;;;;;;59.33;35.30;;;;;;;;;;5037839;28;92864;-71
2022/01/16 08:42:04;;;;;;;60.50;33.97;;;;;;;;;;5037515;28;92205;-71
2022/01/16 08:44:31;;;;;;;55.88;33.53;;;;;;;;;;5037492;28;93212;-71
2022/01/16 08:46:58;;;;;;;61.20;34.40;;;;;;;;;;5035007;27;96425;-70
2022/01/16 08:49:24;;;;;;;58.65;33.83;;;;;;;;;;5040402;28;92428;-71
2022/01/16 08:51:51;;;;;;;60.03;34.22;;;;;;;;;;5036772;28;93701;-71
2022/01/16 08:54:18;;;;;;;68.18;34.13;;;;;;;;;;5036995;28;92304;-70
2022/01/16 08:56:44;;;;;;;56.28;31.92;;;;;;;;;;5026881;28;93429;-71
2022/01/16 08:59:11;;;;;;;57.25;32.42;;;;;;;;;;4996665;28;93142;-71
2022/01/16 09:01:38;;;;;;;53.50;30.20;;;;;;;;;;4996549;28;92262;-71
2022/01/16 09:04:05;;;;;;;50.90;29.35;;;;;;;;;;4995421;28;91655;-71
2022/01/16 09:06:31;;;;;;;50.33;28.10;;;;;;;;;;4998322;28;93069;-71
2022/01/16 09:08:58;;;;;;;51.33;29.23;;;;;;;;;;5016909;28;92753;-71
2022/01/16 09:11:25;;;;;;;48.45;28.80;;;;;;;;;;5018282;28;94628;-71
2022/01/16 09:13:54;;;;;;;47.97;29.42;;;;;;;;;;5016236;28;92265;-72
2022/01/16 09:16:20;;;;;;;55.55;28.10;;;;;;;;;;5016607;28;93463;-72
2022/01/16 09:18:48;;;;;;;51.92;29.35;;;;;;;;;;5016454;28;92642;-71
2022/01/16 09:21:16;;;;;;;46.08;25.88;;;;;;;;;;5016520;28;93344;-73
2022/01/16 09:23:43;;;;;;;42.35;26.25;;;;;;;;;;4998497;28;93387;-72
2022/01/16 09:26:10;;;;;;;41.05;25.33;;;;;;;;;;4996496;28;92725;-73
2022/01/16 09:28:36;;;;;;;41.28;24.35;;;;;;;;;;4997034;28;91661;-71
2022/01/16 09:31:04;;;;;;;42.58;23.77;;;;;;;;;;4996539;28;92928;-73
2022/01/16 09:33:30;;;;;;;36.95;22.08;;;;;;;;;;4999433;28;94078;-73
2022/01/16 09:36:00;;;;;;;38.03;23.73;;;;;;;;;;4993779;28;96451;-71
2022/01/16 09:38:26;;;;;;;36.55;23.10;;;;;;;;;;4996164;28;93847;-71
2022/01/16 09:40:54;;;;;;;38.70;23.50;;;;;;;;;;4996185;28;92273;-72
2022/01/16 09:43:21;;;;;;;39.53;24.35;;;;;;;;;;4996588;28;93342;-71
2022/01/16 09:45:49;;;;;;;40.90;23.90;;;;;;;;;;4996263;28;92338;-72
2022/01/16 09:48:16;;;;;;;43.38;24.00;;;;;;;;;;4996364;28;92317;-72
2022/01/16 09:50:42;;;;;;;46.70;25.00;;;;;;;;;;4995102;28;92891;-73
2022/01/16 09:53:09;;;;;;;47.40;25.60;;;;;;;;;;4996416;28;92848;-70
2022/01/16 09:55:35;;;;;;;47.95;26.35;;;;;;;;;;4998799;28;92248;-71
2022/01/16 09:58:02;;;;;;;49.50;26.42;;;;;;;;;;4995324;28;93854;-72
2022/01/16 10:00:28;;;;;;;48.88;25.75;;;;;;;;;;4994549;28;94747;-75
2022/01/16 10:02:56;;;;;;;53.97;26.77;;;;;;;;;;4996016;28;95700;-73
2022/01/16 10:05:27;;;;;;;49.53;26.67;;;;;;;;;;4995855;28;93448;-73
2022/01/16 10:07:54;;;;;;;53.97;29.23;;;;;;;;;;4995777;28;92344;-72
2022/01/16 10:10:24;;;;;;;56.97;28.40;;;;;;;;;;4995991;28;94541;-72
2022/01/16 10:12:54;;;;;;;51.92;29.70;;;;;;;;;;4995923;28;93421;-72
2022/01/16 10:15:22;;;;;;;56.97;27.85;;;;;;;;;;4996010;28;92279;-72
2022/01/16 10:17:50;;;;;;;60.85;30.65;;;;;;;;;;4999461;28;93708;-71
2022/01/16 10:20:16;;;;;;;57.25;30.40;;;;;;;;;;4995728;28;92256;-72
2022/01/16 10:22:53;;;;;;;72.68;32.50;;;;;;;;;;4995726;28;93729;-71
2022/01/16 10:25:45;;;;;;;69.17;33.40;;;;;;;;;;4994046;28;95382;-70
2022/01/16 10:28:17;;;;;;;70.65;31.48;;;;;;;;;;4992173;28;92258;-71
2022/01/16 10:30:51;;;;;;;76.78;34.22;;;;;;;;;;4995548;28;93699;-71
2022/01/16 10:33:19;;;;;;;72.25;32.47;;;;;;;;;;4995629;28;93277;-71
2022/01/16 10:35:50;;;;;;;74.07;33.42;;;;;;;;;;4995842;28;92279;-71
2022/01/16 10:38:21;;;;;;;73.07;35.43;;;;;;;;;;4998809;28;93408;-72
2022/01/16 10:40:51;;;;;;;77.70;34.88;;;;;;;;;;4995947;28;92275;-70
2022/01/16 10:43:19;;;;;;;82.30;36.42;;;;;;;;;;4996287;28;93461;-70
2022/01/16 10:45:46;;;;;;;79.07;36.65;;;;;;;;;;4995791;28;93092;-70
2022/01/16 10:48:14;;;;;;;82.45;37.70;;;;;;;;;;4996011;28;92313;-70
2022/01/16 10:50:44;;;;;;;79.60;35.80;;;;;;;;;;4994301;28;94694;-71
2022/01/16 10:53:11;;;;;;;82.47;35.33;;;;;;;;;;4995457;28;93501;-71
2022/01/16 10:55:40;;;;;;;79.88;36.42;;;;;;;;;;4995313;28;92236;-72
2022/01/16 10:58:08;;;;;;;75.55;35.58;;;;;;;;;;4994962;28;93507;-71
2022/01/16 11:00:36;;;;;;;78.57;34.55;;;;;;;;;;4998346;28;93600;-71
2022/01/16 11:03:04;;;;;;;87.50;36.88;;;;;;;;;;4995634;28;92881;-71
2022/01/16 11:05:35;;;;;;;83.07;36.22;;;;;;;;;;4995319;28;93479;-71
2022/01/16 11:08:03;;;;;;;77.93;32.73;;;;;;;;;;4995836;28;91554;-72
2022/01/16 11:10:31;;;;;;;87.32;36.08;;;;;;;;;;4997894;28;92331;-71
2022/01/16 11:13:05;;;;;;;80.00;35.25;;;;;;;;;;4998533;28;93456;-70
2022/01/16 11:15:34;;;;;;;82.40;34.72;;;;;;;;;;4997281;28;95004;-70
2022/01/16 11:18:01;;;;;;;96.43;37.30;;;;;;;;;;4998353;28;95128;-69
2022/01/16 11:20:31;;;;;;;88.90;35.22;;;;;;;;;;4998234;28;92826;-70
2022/01/16 11:23:01;;;;;;;91.80;36.50;;;;;;;;;;5001541;28;92177;-70
2022/01/16 11:25:34;;;;;;;88.68;37.10;;;;;;;;;;4998465;28;93292;-70
2022/01/16 11:28:10;;;;;;;87.10;35.15;;;;;;;;;;4998711;28;93292;-70
2022/01/16 11:30:38;;;;;;;93.80;37.40;;;;;;;;;;4998519;28;93423;-70
2022/01/16 11:33:05;;;;;;;90.43;36.00;;;;;;;;;;4998803;28;93156;-71
2022/01/16 11:35:33;;;;;;;97.65;38.13;;;;;;;;;;4998402;28;92327;-71
2022/01/16 11:38:00;;;;;;;90.40;36.78;;;;;;;;;;4998297;28;93939;-72
2022/01/16 11:40:45;;;;;;;80.75;35.13;;;;;;;;;;4996606;28;95960;-70
2022/01/16 11:43:20;;;;;;;91.45;35.00;;;;;;;;;;4998369;28;92331;-70
2022/01/16 11:45:47;;;;;;;90.03;35.60;;;;;;;;;;5001207;28;92869;-72
2022/01/16 11:48:17;;;;;;;88.22;34.15;;;;;;;;;;4997712;28;92412;-72
2022/01/16 11:50:45;;;;;;;89.10;34.92;;;;;;;;;;4998045;28;92937;-72
2022/01/16 11:53:31;;;;;;;91.57;35.85;;;;;;;;;;4997906;28;93739;-72
2022/01/16 11:55:57;;;;;;;84.60;33.72;;;;;;;;;;4998077;28;92426;-71
2022/01/16 11:58:24;;;;;;;85.03;33.25;;;;;;;;;;4998476;28;92931;-71
2022/01/16 12:00:51;;;;;;;85.22;33.42;;;;;;;;;;4997497;28;93028;-73
2022/01/16 12:03:35;;;;;;;96.20;35.60;;;;;;;;;;4997939;28;92318;-71
2022/01/16 12:06:20;;;;;;;96.65;36.20;;;;;;;;;;4996485;28;94736;-70
2022/01/16 12:08:46;;;;;;;103.32;37.10;;;;;;;;;;5000701;28;93323;-70
2022/01/16 12:11:34;;;;;;;91.07;36.85;;;;;;;;;;4997335;28;93515;-71
2022/01/16 12:14:01;;;;;;;96.82;37.38;;;;;;;;;;4997627;28;93677;-70
2022/01/16 12:16:35;;;;;;;99.80;38.22;;;;;;;;;;4997626;28;92364;-70
2022/01/16 12:19:21;;;;;;;89.65;34.78;;;;;;;;;;4997391;28;93663;-70
2022/01/16 12:21:54;;;;;;;98.95;38.22;;;;;;;;;;4996633;28;93611;-70
2022/01/16 12:24:31;;;;;;;93.50;37.08;;;;;;;;;;4998065;28;91621;-69
2022/01/16 12:27:16;;;;;;;100.13;37.25;;;;;;;;;;4997816;28;93152;-70
2022/01/16 12:30:07;;;;;;;105.78;37.88;;;;;;;;;;4997251;28;93511;-69
2022/01/16 12:32:49;;;;;;;105.70;40.75;;;;;;;;;;4999029;28;94678;-70
2022/01/16 12:35:36;;;;;;;104.85;38.97;;;;;;;;;;4997341;28;93633;-70
2022/01/16 12:38:10;;;;;;;95.65;35.90;;;;;;;;;;4997388;28;92414;-72
2022/01/16 12:40:42;;;;;;;95.07;36.88;;;;;;;;;;4997353;28;93146;-71
2022/01/16 12:43:12;;;;;;;98.82;38.92;;;;;;;;;;4997026;28;94184;-71
2022/01/16 12:45:39;;;;;;;107.00;37.28;;;;;;;;;;4997216;28;92462;-71
2022/01/16 12:48:06;;;;;;;108.78;39.33;;;;;;;;;;4997262;28;93333;-71
2022/01/16 12:50:33;;;;;;;101.15;38.80;;;;;;;;;;4997559;28;92405;-71
2022/01/16 12:52:59;;;;;;;107.22;38.65;;;;;;;;;;5012924;28;92296;-70
2022/01/16 12:55:27;;;;;;;92.05;38.33;;;;;;;;;;5015488;28;96653;-71
2022/01/16 12:57:53;;;;;;;96.30;38.75;;;;;;;;;;5015642;28;94703;-71
2022/01/16 13:00:20;;;;;;;96.97;38.70;;;;;;;;;;5016951;28;95385;-71
2022/01/16 13:02:52;;;;;;;92.85;39.33;;;;;;;;;;5016985;28;93637;-71
2022/01/16 13:05:19;;;;;;;96.45;39.03;;;;;;;;;;5015597;28;92337;-71
2022/01/16 13:07:59;;;;;;;95.93;38.65;;;;;;;;;;5016823;28;92911;-71
2022/01/16 13:10:25;;;;;;;94.03;38.17;;;;;;;;;;5016805;28;93674;-72
2022/01/16 13:12:52;;;;;;;90.97;38.08;;;;;;;;;;5016932;28;92328;-71
2022/01/16 13:15:21;;;;;;;82.88;35.38;;;;;;;;;;5019870;28;93662;-72
2022/01/16 13:17:48;;;;;;;89.60;38.10;;;;;;;;;;5016126;28;92343;-72
2022/01/16 13:20:21;;;;;;;86.47;36.05;;;;;;;;;;5015922;28;93302;-72
2022/01/16 13:22:47;;;;;;;84.60;35.80;;;;;;;;;;5014699;28;95705;-71
2022/01/16 13:25:13;;;;;;;76.80;34.42;;;;;;;;;;5016604;28;92220;-73
2022/01/16 13:27:42;;;;;;;71.55;33.70;;;;;;;;;;5016678;28;93646;-72
2022/01/16 13:30:16;;;;;;;76.55;35.63;;;;;;;;;;5016255;28;92594;-73
2022/01/16 13:32:43;;;;;;;85.63;37.17;;;;;;;;;;5016060;28;92382;-72
2022/01/16 13:35:23;;;;;;;75.97;35.00;;;;;;;;;;5016318;28;93562;-72
2022/01/16 13:37:52;;;;;;;77.13;36.83;;;;;;;;;;5019193;28;94004;-72
2022/01/16 13:40:22;;;;;;;71.32;36.10;;;;;;;;;;5016935;28;93914;-71
2022/01/16 13:43:02;;;;;;;71.00;33.28;;;;;;;;;;5015948;28;93528;-72
2022/01/16 13:45:32;;;;;;;71.57;32.05;;;;;;;;;;5016413;28;93149;-72
2022/01/16 13:48:04;;;;;;;65.57;32.95;;;;;;;;;;5014702;28;94774;-72
2022/01/16 13:50:44;;;;;;;64.32;32.20;;;;;;;;;;5016393;28;94045;-72
2022/01/16 13:53:14;;;;;;;67.35;31.95;;;;;;;;;;5016182;28;92301;-72
2022/01/16 13:56:01;;;;;;;60.72;27.30;;;;;;;;;;5015597;28;93350;-72
2022/01/16 13:58:29;;;;;;;63.75;30.58;;;;;;;;;;5015963;28;93593;-72
2022/01/16 14:01:00;;;;;;;56.60;29.50;;;;;;;;;;5007687;28;92433;-72
2022/01/16 14:03:27;;;;;;;58.43;29.77;;;;;;;;;;4996091;28;92855;-74
2022/01/16 14:05:56;;;;;;;64.28;29.05;;;;;;;;;;4996230;28;91573;-70
2022/01/16 14:08:29;;;;;;;60.53;28.60;;;;;;;;;;4996245;28;92794;-72
2022/01/16 14:11:07;;;;;;;57.10;27.77;;;;;;;;;;5002436;28;93800;-72
2022/01/16 14:13:33;;;;;;;58.00;28.67;;;;;;;;;;5004404;28;94849;-71
2022/01/16 14:16:02;;;;;;;55.97;27.42;;;;;;;;;;5004411;28;95961;-73
2022/01/16 14:24:11;;;;;;;53.33;25.63;;;;;;;;;;4998879;28;92650;-73
2022/01/16 14:26:51;;;;;;;52.17;25.15;;;;;;;;;;4995419;28;92355;-72
2022/01/16 14:29:18;;;;;;;42.20;24.42;;;;;;;;;;4995591;28;93351;-71
2022/01/16 14:31:46;;;;;;;46.80;24.52;;;;;;;;;;4996087;28;92465;-72
2022/01/16 14:34:30;;;;;;;48.35;25.50;;;;;;;;;;4994636;28;93335;-72
2022/01/16 14:36:56;;;;;;;44.72;25.35;;;;;;;;;;4994677;28;92776;-71
2022/01/16 14:39:29;;;;;;;46.67;25.33;;;;;;;;;;4990831;28;96138;-73
2022/01/16 14:42:08;;;;;;;46.25;25.67;;;;;;;;;;4993633;28;92381;-70
2022/01/16 14:44:36;;;;;;;45.00;24.48;;;;;;;;;;4997042;28;93386;-72
2022/01/16 14:47:03;;;;;;;44.35;25.88;;;;;;;;;;5001460;28;93614;-72
2022/01/16 14:49:30;;;;;;;46.58;25.60;;;;;;;;;;4998960;28;93378;-72
2022/01/16 14:51:56;;;;;;;50.25;27.23;;;;;;;;;;4999045;28;93482;-71
2022/01/16 14:54:44;;;;;;;57.45;28.08;;;;;;;;;;4998469;28;92381;-72
2022/01/16 14:57:11;;;;;;;54.63;27.83;;;;;;;;;;4999506;28;92802;-72
2022/01/16 14:59:38;;;;;;;53.03;28.83;;;;;;;;;;4998488;28;93931;-73